sensor_id;sensor_type;location;lat;lon;timestamp;pressure;altitude;pressure_sealevel;temperature;humidity
76137;BME280;68622;53.128;17.966;2023-05-07T00:00:58;102064.98;;;6.90;72.35
76137;BME280;68622;53.128;17.966;2023-05-07T00:03:25;102060.61;;;6.84;72.62
76137;BME280;68622;53.128;17.966;2023-05-07T00:05:52;102061.75;;;6.78;72.64
76137;BME280;68622;53.128;17.966;2023-05-07T00:08:19;102060.77;;;6.75;72.34
76137;BME280;68622;53.128;17.966;2023-05-07T00:10:45;102058.35;;;6.75;72.40
76137;BME280;68622;53.128;17.966;2023-05-07T00:13:12;102057.40;;;6.72;72.31
76137;BME280;68622;53.128;17.966;2023-05-07T00:15:38;102055.49;;;6.70;72.11
76137;BME280;68622;53.128;17.966;2023-05-07T00:18:05;102057.23;;;6.66;72.79
76137;BME280;68622;53.128;17.966;2023-05-07T00:20:31;102055.40;;;6.61;72.55
76137;BME280;68622;53.128;17.966;2023-05-07T00:22:57;102056.23;;;6.55;72.47
76137;BME280;68622;53.128;17.966;2023-05-07T00:25:23;102056.09;;;6.47;72.65
76137;BME280;68622;53.128;17.966;2023-05-07T00:27:49;102055.01;;;6.41;72.49
76137;BME280;68622;53.128;17.966;2023-05-07T00:30:15;102061.33;;;6.39;72.22
76137;BME280;68622;53.128;17.966;2023-05-07T00:32:41;102064.88;;;6.37;72.42
76137;BME280;68622;53.128;17.966;2023-05-07T00:35:08;102062.84;;;6.33;72.44
76137;BME280;68622;53.128;17.966;2023-05-07T00:37:34;102069.48;;;6.28;72.30
76137;BME280;68622;53.128;17.966;2023-05-07T00:40:00;102069.84;;;6.24;72.37
76137;BME280;68622;53.128;17.966;2023-05-07T00:42:26;102072.34;;;6.19;72.54
76137;BME280;68622;53.128;17.966;2023-05-07T00:44:54;102075.45;;;6.15;72.36
76137;BME280;68622;53.128;17.966;2023-05-07T00:47:21;102077.84;;;6.12;72.70
76137;BME280;68622;53.128;17.966;2023-05-07T00:49:46;102079.80;;;6.06;72.47
76137;BME280;68622;53.128;17.966;2023-05-07T00:52:16;102071.92;;;5.98;72.39
76137;BME280;68622;53.128;17.966;2023-05-07T00:54:43;102081.89;;;5.99;72.27
76137;BME280;68622;53.128;17.966;2023-05-07T00:57:10;102084.56;;;5.97;72.29
76137;BME280;68622;53.128;17.966;2023-05-07T00:59:37;102087.65;;;5.93;72.44
76137;BME280;68622;53.128;17.966;2023-05-07T01:02:03;102086.81;;;5.89;72.28
76137;BME280;68622;53.128;17.966;2023-05-07T01:04:29;102085.89;;;5.86;72.41
76137;BME280;68622;53.128;17.966;2023-05-07T01:06:57;102085.30;;;5.84;72.46
76137;BME280;68622;53.128;17.966;2023-05-07T01:09:25;102084.13;;;5.80;72.44
76137;BME280;68622;53.128;17.966;2023-05-07T01:11:52;102083.67;;;5.75;72.46
76137;BME280;68622;53.128;17.966;2023-05-07T01:14:18;102085.44;;;5.66;72.70
76137;BME280;68622;53.128;17.966;2023-05-07T01:16:47;102085.05;;;5.60;72.80
76137;BME280;68622;53.128;17.966;2023-05-07T01:19:15;102085.29;;;5.59;72.62
76137;BME280;68622;53.128;17.966;2023-05-07T01:21:47;102086.60;;;5.48;72.79
76137;BME280;68622;53.128;17.966;2023-05-07T01:24:15;102086.98;;;5.40;73.50
76137;BME280;68622;53.128;17.966;2023-05-07T01:26:43;102086.44;;;5.33;73.35
76137;BME280;68622;53.128;17.966;2023-05-07T01:29:10;102088.40;;;5.28;73.03
76137;BME280;68622;53.128;17.966;2023-05-07T01:31:37;102092.95;;;5.26;72.98
76137;BME280;68622;53.128;17.966;2023-05-07T01:34:03;102096.19;;;5.22;73.01
76137;BME280;68622;53.128;17.966;2023-05-07T01:36:32;102095.83;;;5.19;73.03
76137;BME280;68622;53.128;17.966;2023-05-07T01:38:58;102099.04;;;5.12;73.41
76137;BME280;68622;53.128;17.966;2023-05-07T01:41:25;102103.23;;;5.07;72.98
76137;BME280;68622;53.128;17.966;2023-05-07T01:43:52;102104.61;;;5.03;73.54
76137;BME280;68622;53.128;17.966;2023-05-07T01:46:18;102110.83;;;4.98;73.12
76137;BME280;68622;53.128;17.966;2023-05-07T01:48:45;102110.76;;;4.95;73.07
76137;BME280;68622;53.128;17.966;2023-05-07T01:51:11;102109.55;;;4.92;73.06
76137;BME280;68622;53.128;17.966;2023-05-07T01:53:39;102109.14;;;4.89;73.20
76137;BME280;68622;53.128;17.966;2023-05-07T01:56:07;102110.27;;;4.87;73.10
76137;BME280;68622;53.128;17.966;2023-05-07T01:58:34;102109.52;;;4.84;73.06
76137;BME280;68622;53.128;17.966;2023-05-07T02:01:01;102114.39;;;4.83;73.08
76137;BME280;68622;53.128;17.966;2023-05-07T02:03:27;102114.70;;;4.79;73.50
76137;BME280;68622;53.128;17.966;2023-05-07T02:05:58;102117.30;;;4.75;73.29
76137;BME280;68622;53.128;17.966;2023-05-07T02:08:36;102118.05;;;4.69;73.03
76137;BME280;68622;53.128;17.966;2023-05-07T02:11:02;102117.05;;;4.65;73.01
76137;BME280;68622;53.128;17.966;2023-05-07T02:13:31;102118.98;;;4.60;73.03
76137;BME280;68622;53.128;17.966;2023-05-07T02:15:58;102118.13;;;4.55;73.17
76137;BME280;68622;53.128;17.966;2023-05-07T02:18:24;102118.27;;;4.51;73.33
76137;BME280;68622;53.128;17.966;2023-05-07T02:20:50;102121.30;;;4.49;73.07
76137;BME280;68622;53.128;17.966;2023-05-07T02:23:16;102121.57;;;4.46;73.18
76137;BME280;68622;53.128;17.966;2023-05-07T02:25:42;102124.50;;;4.42;73.24
76137;BME280;68622;53.128;17.966;2023-05-07T02:28:10;102128.57;;;4.39;73.41
76137;BME280;68622;53.128;17.966;2023-05-07T02:30:44;102132.42;;;4.37;73.44
76137;BME280;68622;53.128;17.966;2023-05-07T02:33:10;102133.91;;;4.34;73.27
76137;BME280;68622;53.128;17.966;2023-05-07T02:35:38;102134.95;;;4.30;73.45
76137;BME280;68622;53.128;17.966;2023-05-07T02:38:04;102136.74;;;4.24;73.51
76137;BME280;68622;53.128;17.966;2023-05-07T02:40:30;102136.63;;;4.17;73.72
76137;BME280;68622;53.128;17.966;2023-05-07T02:42:59;102140.60;;;4.12;73.48
76137;BME280;68622;53.128;17.966;2023-05-07T02:45:25;102140.84;;;4.10;73.33
76137;BME280;68622;53.128;17.966;2023-05-07T02:47:52;102137.85;;;4.08;73.20
76137;BME280;68622;53.128;17.966;2023-05-07T02:50:19;102138.46;;;4.06;73.60
76137;BME280;68622;53.128;17.966;2023-05-07T02:52:45;102139.09;;;4.02;73.26
76137;BME280;68622;53.128;17.966;2023-05-07T02:55:11;102136.70;;;3.98;73.89
76137;BME280;68622;53.128;17.966;2023-05-07T02:57:37;102138.69;;;3.95;73.57
76137;BME280;68622;53.128;17.966;2023-05-07T03:00:13;102137.23;;;3.93;73.43
76137;BME280;68622;53.128;17.966;2023-05-07T03:02:42;102139.73;;;3.91;73.61
76137;BME280;68622;53.128;17.966;2023-05-07T03:05:08;102137.85;;;3.90;73.10
76137;BME280;68622;53.128;17.966;2023-05-07T03:07:35;102140.75;;;3.91;73.39
76137;BME280;68622;53.128;17.966;2023-05-07T03:10:02;102144.39;;;3.90;73.55
76137;BME280;68622;53.128;17.966;2023-05-07T03:12:28;102148.68;;;3.90;73.55
76137;BME280;68622;53.128;17.966;2023-05-07T03:14:54;102150.36;;;3.91;73.27
76137;BME280;68622;53.128;17.966;2023-05-07T03:17:21;102155.16;;;3.91;73.26
76137;BME280;68622;53.128;17.966;2023-05-07T03:19:47;102157.92;;;3.91;73.05
76137;BME280;68622;53.128;17.966;2023-05-07T03:22:14;102159.39;;;3.93;73.02
76137;BME280;68622;53.128;17.966;2023-05-07T03:24:40;102159.57;;;3.97;73.11
76137;BME280;68622;53.128;17.966;2023-05-07T03:27:06;102161.05;;;3.99;73.43
76137;BME280;68622;53.128;17.966;2023-05-07T03:29:32;102163.84;;;4.02;72.98
76137;BME280;68622;53.128;17.966;2023-05-07T03:31:58;102166.14;;;4.04;73.37
76137;BME280;68622;53.128;17.966;2023-05-07T03:34:24;102167.01;;;4.04;73.58
76137;BME280;68622;53.128;17.966;2023-05-07T03:36:50;102169.61;;;4.03;73.18
76137;BME280;68622;53.128;17.966;2023-05-07T03:39:16;102172.34;;;4.04;73.43
76137;BME280;68622;53.128;17.966;2023-05-07T03:41:42;102180.14;;;4.07;73.43
76137;BME280;68622;53.128;17.966;2023-05-07T03:44:08;102182.29;;;4.09;72.96
76137;BME280;68622;53.128;17.966;2023-05-07T03:46:34;102183.02;;;4.12;73.28
76137;BME280;68622;53.128;17.966;2023-05-07T03:49:00;102182.30;;;4.13;73.31
76137;BME280;68622;53.128;17.966;2023-05-07T03:51:27;102182.67;;;4.12;73.57
76137;BME280;68622;53.128;17.966;2023-05-07T03:53:53;102184.59;;;4.12;73.53
76137;BME280;68622;53.128;17.966;2023-05-07T03:56:19;102187.77;;;4.13;73.33
76137;BME280;68622;53.128;17.966;2023-05-07T03:58:47;102192.77;;;4.18;73.72
76137;BME280;68622;53.128;17.966;2023-05-07T04:01:13;102195.48;;;4.24;73.67
76137;BME280;68622;53.128;17.966;2023-05-07T04:03:39;102196.85;;;4.28;73.54
76137;BME280;68622;53.128;17.966;2023-05-07T04:06:05;102199.15;;;4.31;73.58
76137;BME280;68622;53.128;17.966;2023-05-07T04:08:33;102200.92;;;4.34;73.40
76137;BME280;68622;53.128;17.966;2023-05-07T04:10:59;102203.03;;;4.37;73.45
76137;BME280;68622;53.128;17.966;2023-05-07T04:13:29;102208.41;;;4.44;73.09
76137;BME280;68622;53.128;17.966;2023-05-07T04:15:57;102211.47;;;4.54;73.16
76137;BME280;68622;53.128;17.966;2023-05-07T04:18:23;102212.70;;;4.62;73.05
76137;BME280;68622;53.128;17.966;2023-05-07T04:20:49;102212.08;;;4.65;73.08
76137;BME280;68622;53.128;17.966;2023-05-07T04:23:15;102217.39;;;4.70;72.96
76137;BME280;68622;53.128;17.966;2023-05-07T04:25:42;102221.52;;;4.74;73.09
76137;BME280;68622;53.128;17.966;2023-05-07T04:28:21;102221.56;;;4.77;73.28
76137;BME280;68622;53.128;17.966;2023-05-07T04:30:47;102218.64;;;4.81;73.20
76137;BME280;68622;53.128;17.966;2023-05-07T04:33:14;102222.46;;;4.89;73.01
76137;BME280;68622;53.128;17.966;2023-05-07T04:35:42;102222.05;;;4.99;72.72
76137;BME280;68622;53.128;17.966;2023-05-07T04:38:09;102222.34;;;5.09;72.55
76137;BME280;68622;53.128;17.966;2023-05-07T04:40:35;102223.23;;;5.16;72.98
76137;BME280;68622;53.128;17.966;2023-05-07T04:43:02;102225.34;;;5.27;72.34
76137;BME280;68622;53.128;17.966;2023-05-07T04:45:30;102231.95;;;5.46;72.70
76137;BME280;68622;53.128;17.966;2023-05-07T04:47:56;102234.48;;;5.63;72.81
76137;BME280;68622;53.128;17.966;2023-05-07T04:50:22;102234.79;;;5.80;73.00
76137;BME280;68622;53.128;17.966;2023-05-07T04:52:50;102233.10;;;6.03;73.04
76137;BME280;68622;53.128;17.966;2023-05-07T04:55:17;102232.74;;;6.22;72.84
76137;BME280;68622;53.128;17.966;2023-05-07T04:57:43;102234.69;;;6.43;72.58
76137;BME280;68622;53.128;17.966;2023-05-07T05:00:11;102235.19;;;6.62;72.29
76137;BME280;68622;53.128;17.966;2023-05-07T05:02:41;102237.10;;;6.83;71.97
76137;BME280;68622;53.128;17.966;2023-05-07T05:05:07;102238.03;;;7.10;71.33
76137;BME280;68622;53.128;17.966;2023-05-07T05:07:34;102241.58;;;7.39;70.46
76137;BME280;68622;53.128;17.966;2023-05-07T05:10:02;102239.61;;;7.67;69.50
76137;BME280;68622;53.128;17.966;2023-05-07T05:12:30;102241.94;;;7.92;68.59
76137;BME280;68622;53.128;17.966;2023-05-07T05:14:57;102245.89;;;8.09;68.26
76137;BME280;68622;53.128;17.966;2023-05-07T05:17:23;102248.11;;;8.29;68.34
76137;BME280;68622;53.128;17.966;2023-05-07T05:19:49;102247.34;;;8.43;67.78
76137;BME280;68622;53.128;17.966;2023-05-07T05:22:16;102247.02;;;8.58;67.08
76137;BME280;68622;53.128;17.966;2023-05-07T05:24:41;102248.23;;;8.74;67.71
76137;BME280;68622;53.128;17.966;2023-05-07T05:27:07;102253.17;;;8.93;66.94
76137;BME280;68622;53.128;17.966;2023-05-07T05:29:34;102249.54;;;9.11;65.94
76137;BME280;68622;53.128;17.966;2023-05-07T05:32:00;102245.67;;;9.27;65.26
76137;BME280;68622;53.128;17.966;2023-05-07T05:34:27;102253.16;;;9.47;65.89
76137;BME280;68622;53.128;17.966;2023-05-07T05:36:54;102255.39;;;9.71;64.10
76137;BME280;68622;53.128;17.966;2023-05-07T05:39:20;102255.59;;;9.90;62.18
76137;BME280;68622;53.128;17.966;2023-05-07T05:41:47;102248.23;;;10.06;62.31
76137;BME280;68622;53.128;17.966;2023-05-07T05:44:13;102245.29;;;10.20;62.94
76137;BME280;68622;53.128;17.966;2023-05-07T05:46:40;102245.13;;;10.37;62.50
76137;BME280;68622;53.128;17.966;2023-05-07T05:49:06;102251.55;;;10.50;62.54
76137;BME280;68622;53.128;17.966;2023-05-07T05:51:33;102248.77;;;10.64;61.54
76137;BME280;68622;53.128;17.966;2023-05-07T05:53:59;102248.62;;;10.77;62.35
76137;BME280;68622;53.128;17.966;2023-05-07T05:56:25;102249.21;;;10.84;59.78
76137;BME280;68622;53.128;17.966;2023-05-07T05:58:51;102252.55;;;10.99;61.00
76137;BME280;68622;53.128;17.966;2023-05-07T06:01:18;102252.71;;;11.04;60.93
76137;BME280;68622;53.128;17.966;2023-05-07T06:03:45;102253.95;;;11.17;60.87
76137;BME280;68622;53.128;17.966;2023-05-07T06:06:13;102257.69;;;11.31;59.60
76137;BME280;68622;53.128;17.966;2023-05-07T06:08:42;102258.73;;;11.47;58.56
76137;BME280;68622;53.128;17.966;2023-05-07T06:11:08;102252.73;;;11.64;57.35
76137;BME280;68622;53.128;17.966;2023-05-07T06:13:36;102250.83;;;11.82;58.59
76137;BME280;68622;53.128;17.966;2023-05-07T06:16:02;102254.34;;;11.96;59.79
76137;BME280;68622;53.128;17.966;2023-05-07T06:18:29;102254.94;;;12.05;57.85
76137;BME280;68622;53.128;17.966;2023-05-07T06:20:55;102251.33;;;12.12;57.70
76137;BME280;68622;53.128;17.966;2023-05-07T06:23:28;102251.99;;;12.25;57.57
76137;BME280;68622;53.128;17.966;2023-05-07T06:25:54;102253.59;;;12.36;57.93
76137;BME280;68622;53.128;17.966;2023-05-07T06:28:23;102257.41;;;12.44;56.63
76137;BME280;68622;53.128;17.966;2023-05-07T06:30:49;102256.84;;;12.51;56.61
76137;BME280;68622;53.128;17.966;2023-05-07T06:33:16;102259.25;;;12.62;56.23
76137;BME280;68622;53.128;17.966;2023-05-07T06:35:42;102260.25;;;12.67;55.67
76137;BME280;68622;53.128;17.966;2023-05-07T06:38:08;102262.51;;;12.67;55.59
76137;BME280;68622;53.128;17.966;2023-05-07T06:40:34;102260.50;;;12.63;52.98
76137;BME280;68622;53.128;17.966;2023-05-07T06:43:00;102258.94;;;12.71;54.89
76137;BME280;68622;53.128;17.966;2023-05-07T06:45:35;102259.64;;;12.68;53.51
76137;BME280;68622;53.128;17.966;2023-05-07T06:48:02;102258.66;;;12.79;54.77
76137;BME280;68622;53.128;17.966;2023-05-07T06:50:30;102264.74;;;12.86;53.39
76137;BME280;68622;53.128;17.966;2023-05-07T06:52:56;102267.09;;;12.90;52.21
76137;BME280;68622;53.128;17.966;2023-05-07T06:55:22;102267.64;;;12.99;53.08
76137;BME280;68622;53.128;17.966;2023-05-07T06:57:48;102266.59;;;13.02;52.62
76137;BME280;68622;53.128;17.966;2023-05-07T07:00:15;102271.75;;;13.02;51.85
76137;BME280;68622;53.128;17.966;2023-05-07T07:02:48;102272.80;;;13.09;52.60
76137;BME280;68622;53.128;17.966;2023-05-07T07:05:14;102274.81;;;13.08;52.35
76137;BME280;68622;53.128;17.966;2023-05-07T07:07:40;102282.50;;;13.17;53.00
76137;BME280;68622;53.128;17.966;2023-05-07T07:10:07;102283.77;;;13.24;52.62
76137;BME280;68622;53.128;17.966;2023-05-07T07:12:34;102282.53;;;13.24;51.10
76137;BME280;68622;53.128;17.966;2023-05-07T07:15:00;102283.23;;;13.24;50.80
76137;BME280;68622;53.128;17.966;2023-05-07T07:17:26;102279.89;;;13.34;51.42
76137;BME280;68622;53.128;17.966;2023-05-07T07:19:55;102281.82;;;13.43;51.55
76137;BME280;68622;53.128;17.966;2023-05-07T07:22:21;102279.65;;;13.51;52.62
76137;BME280;68622;53.128;17.966;2023-05-07T07:24:47;102281.19;;;13.54;51.45
76137;BME280;68622;53.128;17.966;2023-05-07T07:27:14;102285.28;;;13.59;51.42
76137;BME280;68622;53.128;17.966;2023-05-07T07:29:40;102283.00;;;13.57;49.63
76137;BME280;68622;53.128;17.966;2023-05-07T07:32:06;102285.61;;;13.59;49.68
76137;BME280;68622;53.128;17.966;2023-05-07T07:34:32;102286.59;;;13.63;49.56
76137;BME280;68622;53.128;17.966;2023-05-07T07:37:00;102285.93;;;13.64;47.74
76137;BME280;68622;53.128;17.966;2023-05-07T07:39:32;102287.17;;;13.57;45.50
76137;BME280;68622;53.128;17.966;2023-05-07T07:41:58;102288.23;;;13.57;47.02
76137;BME280;68622;53.128;17.966;2023-05-07T07:44:28;102291.63;;;13.58;47.88
76137;BME280;68622;53.128;17.966;2023-05-07T07:46:57;102288.51;;;13.58;47.74
76137;BME280;68622;53.128;17.966;2023-05-07T07:49:23;102290.52;;;13.61;47.69
76137;BME280;68622;53.128;17.966;2023-05-07T07:51:49;102289.16;;;13.61;47.10
76137;BME280;68622;53.128;17.966;2023-05-07T07:54:17;102292.98;;;13.70;46.26
76137;BME280;68622;53.128;17.966;2023-05-07T07:56:43;102290.41;;;13.70;45.11
76137;BME280;68622;53.128;17.966;2023-05-07T07:59:09;102293.63;;;13.69;45.33
76137;BME280;68622;53.128;17.966;2023-05-07T08:01:37;102294.10;;;13.72;46.35
76137;BME280;68622;53.128;17.966;2023-05-07T08:04:04;102294.70;;;13.76;45.35
76137;BME280;68622;53.128;17.966;2023-05-07T08:06:32;102293.33;;;13.77;44.27
76137;BME280;68622;53.128;17.966;2023-05-07T08:08:58;102292.09;;;13.73;42.02
76137;BME280;68622;53.128;17.966;2023-05-07T08:11:25;102294.61;;;13.81;44.99
76137;BME280;68622;53.128;17.966;2023-05-07T08:13:52;102296.92;;;13.87;44.38
76137;BME280;68622;53.128;17.966;2023-05-07T08:16:19;102293.88;;;13.92;43.32
76137;BME280;68622;53.128;17.966;2023-05-07T08:18:45;102296.67;;;13.95;42.56
76137;BME280;68622;53.128;17.966;2023-05-07T08:21:11;102293.84;;;13.95;43.77
76137;BME280;68622;53.128;17.966;2023-05-07T08:23:37;102294.15;;;14.02;43.92
76137;BME280;68622;53.128;17.966;2023-05-07T08:26:05;102298.81;;;14.08;41.74
76137;BME280;68622;53.128;17.966;2023-05-07T08:28:33;102292.63;;;14.09;42.66
76137;BME280;68622;53.128;17.966;2023-05-07T08:30:59;102294.59;;;14.17;43.03
76137;BME280;68622;53.128;17.966;2023-05-07T08:33:28;102291.58;;;14.20;41.43
76137;BME280;68622;53.128;17.966;2023-05-07T08:35:54;102290.80;;;14.27;42.23
76137;BME280;68622;53.128;17.966;2023-05-07T08:38:20;102296.09;;;14.29;42.52
76137;BME280;68622;53.128;17.966;2023-05-07T08:40:46;102295.73;;;14.35;41.16
76137;BME280;68622;53.128;17.966;2023-05-07T08:43:18;102297.23;;;14.36;40.97
76137;BME280;68622;53.128;17.966;2023-05-07T08:45:45;102299.93;;;14.40;41.48
76137;BME280;68622;53.128;17.966;2023-05-07T08:48:16;102308.27;;;14.41;40.70
76137;BME280;68622;53.128;17.966;2023-05-07T08:50:46;102300.95;;;14.36;40.49
76137;BME280;68622;53.128;17.966;2023-05-07T08:53:12;102301.33;;;14.36;41.20
76137;BME280;68622;53.128;17.966;2023-05-07T08:55:39;102300.98;;;14.35;39.59
76137;BME280;68622;53.128;17.966;2023-05-07T08:58:05;102302.59;;;14.33;39.23
76137;BME280;68622;53.128;17.966;2023-05-07T09:00:33;102306.17;;;14.29;40.15
76137;BME280;68622;53.128;17.966;2023-05-07T09:03:00;102305.09;;;14.30;39.25
76137;BME280;68622;53.128;17.966;2023-05-07T09:05:27;102302.77;;;14.28;39.99
76137;BME280;68622;53.128;17.966;2023-05-07T09:07:53;102304.35;;;14.35;40.74
76137;BME280;68622;53.128;17.966;2023-05-07T09:10:21;102310.00;;;14.41;39.92
76137;BME280;68622;53.128;17.966;2023-05-07T09:12:47;102307.03;;;14.43;40.62
76137;BME280;68622;53.128;17.966;2023-05-07T09:15:14;102304.52;;;14.47;41.01
76137;BME280;68622;53.128;17.966;2023-05-07T09:17:43;102308.05;;;14.50;40.73
76137;BME280;68622;53.128;17.966;2023-05-07T09:20:09;102301.19;;;14.53;40.45
76137;BME280;68622;53.128;17.966;2023-05-07T09:22:37;102305.51;;;14.56;40.37
76137;BME280;68622;53.128;17.966;2023-05-07T09:25:07;102307.52;;;14.52;39.45
76137;BME280;68622;53.128;17.966;2023-05-07T09:27:38;102298.61;;;14.52;39.31
76137;BME280;68622;53.128;17.966;2023-05-07T09:30:05;102301.20;;;14.55;39.76
76137;BME280;68622;53.128;17.966;2023-05-07T09:32:37;102299.95;;;14.55;39.25
76137;BME280;68622;53.128;17.966;2023-05-07T09:35:17;102298.15;;;14.61;40.58
76137;BME280;68622;53.128;17.966;2023-05-07T09:37:48;102301.97;;;14.63;40.55
76137;BME280;68622;53.128;17.966;2023-05-07T09:40:26;102305.05;;;14.74;41.00
76137;BME280;68622;53.128;17.966;2023-05-07T09:42:53;102311.08;;;14.84;39.76
76137;BME280;68622;53.128;17.966;2023-05-07T09:45:27;102308.77;;;14.87;39.48
76137;BME280;68622;53.128;17.966;2023-05-07T09:47:56;102303.92;;;14.78;38.66
76137;BME280;68622;53.128;17.966;2023-05-07T09:50:28;102302.21;;;14.81;39.50
76137;BME280;68622;53.128;17.966;2023-05-07T09:52:55;102311.34;;;14.87;39.71
76137;BME280;68622;53.128;17.966;2023-05-07T09:55:23;102310.87;;;14.93;40.06
76137;BME280;68622;53.128;17.966;2023-05-07T09:57:53;102312.33;;;14.99;39.72
76137;BME280;68622;53.128;17.966;2023-05-07T10:00:20;102316.67;;;15.10;40.51
76137;BME280;68622;53.128;17.966;2023-05-07T10:02:49;102325.76;;;15.14;39.41
76137;BME280;68622;53.128;17.966;2023-05-07T10:05:19;102325.67;;;15.19;39.56
76137;BME280;68622;53.128;17.966;2023-05-07T10:07:48;102322.04;;;15.21;39.08
76137;BME280;68622;53.128;17.966;2023-05-07T10:10:17;102322.69;;;15.15;39.05
76137;BME280;68622;53.128;17.966;2023-05-07T10:12:43;102321.02;;;15.18;39.04
76137;BME280;68622;53.128;17.966;2023-05-07T10:15:17;102326.85;;;15.28;39.47
76137;BME280;68622;53.128;17.966;2023-05-07T10:17:46;102323.70;;;15.35;39.28
76137;BME280;68622;53.128;17.966;2023-05-07T10:20:14;102320.92;;;15.45;38.98
76137;BME280;68622;53.128;17.966;2023-05-07T10:22:43;102319.70;;;15.35;38.21
76137;BME280;68622;53.128;17.966;2023-05-07T10:25:37;102322.01;;;15.45;39.14
76137;BME280;68622;53.128;17.966;2023-05-07T10:28:08;102327.02;;;15.51;38.79
76137;BME280;68622;53.128;17.966;2023-05-07T10:30:51;102331.63;;;15.51;38.89
76137;BME280;68622;53.128;17.966;2023-05-07T10:33:27;102327.11;;;15.46;38.90
76137;BME280;68622;53.128;17.966;2023-05-07T10:35:58;102328.52;;;15.29;37.91
76137;BME280;68622;53.128;17.966;2023-05-07T10:38:27;102323.05;;;15.15;39.20
76137;BME280;68622;53.128;17.966;2023-05-07T10:40:54;102327.84;;;15.18;39.41
76137;BME280;68622;53.128;17.966;2023-05-07T10:43:21;102323.20;;;15.26;39.76
76137;BME280;68622;53.128;17.966;2023-05-07T10:52:12;102318.57;;;15.57;39.24
76137;BME280;68622;53.128;17.966;2023-05-07T10:58:33;102319.40;;;15.67;38.42
76137;BME280;68622;53.128;17.966;2023-05-07T11:01:11;102318.45;;;15.68;38.26
76137;BME280;68622;53.128;17.966;2023-05-07T11:04:12;102322.33;;;15.87;38.63
76137;BME280;68622;53.128;17.966;2023-05-07T11:06:39;102324.02;;;16.14;38.40
76137;BME280;68622;53.128;17.966;2023-05-07T11:09:08;102320.98;;;16.20;37.97
76137;BME280;68622;53.128;17.966;2023-05-07T11:11:51;102327.07;;;16.29;37.41
76137;BME280;68622;53.128;17.966;2023-05-07T11:17:18;102327.42;;;16.63;37.37
76137;BME280;68622;53.128;17.966;2023-05-07T11:19:50;102328.29;;;16.83;37.24
76137;BME280;68622;53.128;17.966;2023-05-07T11:25:06;102328.81;;;17.00;37.08
76137;BME280;68622;53.128;17.966;2023-05-07T11:27:33;102328.46;;;16.95;36.39
76137;BME280;68622;53.128;17.966;2023-05-07T11:29:59;102322.77;;;16.97;36.18
76137;BME280;68622;53.128;17.966;2023-05-07T11:32:28;102321.48;;;16.90;35.58
76137;BME280;68622;53.128;17.966;2023-05-07T11:34:56;102320.94;;;16.89;36.62
76137;BME280;68622;53.128;17.966;2023-05-07T11:37:25;102326.45;;;16.94;36.65
76137;BME280;68622;53.128;17.966;2023-05-07T11:40:07;102325.77;;;17.07;36.25
76137;BME280;68622;53.128;17.966;2023-05-07T11:42:36;102326.66;;;17.20;36.29
76137;BME280;68622;53.128;17.966;2023-05-07T11:45:04;102327.48;;;17.09;35.49
76137;BME280;68622;53.128;17.966;2023-05-07T11:47:30;102328.23;;;16.99;35.96
76137;BME280;68622;53.128;17.966;2023-05-07T11:49:57;102324.92;;;16.91;34.52
76137;BME280;68622;53.128;17.966;2023-05-07T11:52:27;102324.05;;;16.79;35.68
76137;BME280;68622;53.128;17.966;2023-05-07T11:54:55;102323.23;;;16.69;36.33
76137;BME280;68622;53.128;17.966;2023-05-07T11:57:22;102328.33;;;16.56;36.58
76137;BME280;68622;53.128;17.966;2023-05-07T11:59:53;102330.58;;;16.37;35.84
76137;BME280;68622;53.128;17.966;2023-05-07T12:02:19;102328.80;;;16.49;36.21
76137;BME280;68622;53.128;17.966;2023-05-07T12:04:45;102329.89;;;16.67;36.56
76137;BME280;68622;53.128;17.966;2023-05-07T12:07:12;102334.15;;;16.82;36.65
76137;BME280;68622;53.128;17.966;2023-05-07T12:09:40;102332.02;;;16.62;36.28
76137;BME280;68622;53.128;17.966;2023-05-07T12:12:06;102337.24;;;16.55;36.50
76137;BME280;68622;53.128;17.966;2023-05-07T12:14:32;102341.48;;;16.46;36.88
76137;BME280;68622;53.128;17.966;2023-05-07T12:17:02;102332.84;;;16.49;36.30
76137;BME280;68622;53.128;17.966;2023-05-07T12:19:30;102333.50;;;16.47;36.65
76137;BME280;68622;53.128;17.966;2023-05-07T12:21:56;102338.21;;;16.36;36.98
76137;BME280;68622;53.128;17.966;2023-05-07T12:24:23;102333.73;;;16.24;36.30
76137;BME280;68622;53.128;17.966;2023-05-07T12:26:49;102331.89;;;16.18;36.59
76137;BME280;68622;53.128;17.966;2023-05-07T12:29:15;102327.27;;;16.28;37.07
76137;BME280;68622;53.128;17.966;2023-05-07T12:31:42;102330.63;;;16.26;36.33
76137;BME280;68622;53.128;17.966;2023-05-07T12:34:08;102333.95;;;16.28;36.55
76137;BME280;68622;53.128;17.966;2023-05-07T12:36:37;102329.60;;;16.12;34.76
76137;BME280;68622;53.128;17.966;2023-05-07T12:39:05;102328.95;;;16.15;35.46
76137;BME280;68622;53.128;17.966;2023-05-07T12:41:36;102328.87;;;16.16;35.78
76137;BME280;68622;53.128;17.966;2023-05-07T12:44:04;102330.05;;;16.37;35.91
76137;BME280;68622;53.128;17.966;2023-05-07T12:46:30;102328.04;;;16.46;34.28
76137;BME280;68622;53.128;17.966;2023-05-07T12:48:56;102330.02;;;16.59;35.52
76137;BME280;68622;53.128;17.966;2023-05-07T12:51:22;102331.45;;;16.73;35.39
76137;BME280;68622;53.128;17.966;2023-05-07T12:53:48;102330.81;;;16.76;34.73
76137;BME280;68622;53.128;17.966;2023-05-07T12:56:15;102334.20;;;16.91;35.15
76137;BME280;68622;53.128;17.966;2023-05-07T12:58:41;102333.91;;;16.87;34.67
76137;BME280;68622;53.128;17.966;2023-05-07T13:01:08;102334.35;;;16.87;34.79
76137;BME280;68622;53.128;17.966;2023-05-07T13:03:37;102329.30;;;16.85;34.54